TimeMST,TemperatureF,Dew PointF,Humidity,Sea Level PressureIn,VisibilityMPH,Wind Direction,Wind SpeedMPH,Gust SpeedMPH,PrecipitationIn,Events,Conditions,WindDirDegrees,DateUTC
12:00 AM,14.0,3.2,62,29.90,10.0,SW,10.4,18.4,N/A,,Scattered Clouds,220,2014-02-22 07:00:00
12:20 AM,14.0,1.4,57,29.89,10.0,SW,11.5,19.6,N/A,,Clear,220,2014-02-22 07:20:00
12:40 AM,14.0,1.4,57,29.89,10.0,SSW,9.2,17.3,N/A,,Clear,210,2014-02-22 07:40:00
1:00 AM,14.0,1.4,57,29.89,10.0,SW,11.5,18.4,N/A,,Clear,220,2014-02-22 08:00:00
1:20 AM,14.0,3.2,62,29.89,10.0,SW,9.2,19.6,N/A,,Clear,230,2014-02-22 08:20:00
1:40 AM,14.0,3.2,62,29.88,10.0,SW,6.9,-,N/A,,Clear,230,2014-02-22 08:40:00
2:00 AM,14.0,3.2,62,29.88,10.0,WSW,5.8,-,N/A,,Clear,250,2014-02-22 09:00:00
2:20 AM,14.0,5.0,67,29.88,10.0,WSW,5.8,-,N/A,,Clear,240,2014-02-22 09:20:00
2:40 AM,14.0,5.0,67,29.87,10.0,SW,6.9,-,N/A,,Clear,230,2014-02-22 09:40:00
3:00 AM,14.0,5.0,67,29.87,10.0,SW,6.9,-,N/A,,Clear,220,2014-02-22 10:00:00
3:20 AM,14.0,5.0,67,29.87,10.0,SSW,9.2,20.7,N/A,,Clear,210,2014-02-22 10:20:00
3:40 AM,14.0,5.0,67,29.87,10.0,SW,11.5,19.6,N/A,,Clear,220,2014-02-22 10:40:00
4:00 AM,12.2,5.0,73,29.86,10.0,SW,9.2,17.3,N/A,,Clear,220,2014-02-22 11:00:00
4:19 AM,12.2,3.2,67,29.87,10.0,SW,8.1,-,N/A,,Clear,220,2014-02-22 11:19:00
4:40 AM,12.2,3.2,67,29.86,10.0,SW,10.4,19.6,N/A,,Clear,230,2014-02-22 11:40:00
4:59 AM,12.2,3.2,67,29.87,10.0,SW,11.5,19.6,N/A,,Scattered Clouds,220,2014-02-22 11:59:00
5:20 AM,12.2,3.2,67,29.86,10.0,SW,13.8,20.7,N/A,,Mostly Cloudy,220,2014-02-22 12:20:00
5:39 AM,12.2,3.2,67,29.85,10.0,SW,12.7,24.2,N/A,,Scattered Clouds,220,2014-02-22 12:39:00
6:00 AM,12.2,1.4,62,29.86,10.0,SW,12.7,21.9,N/A,,Clear,220,2014-02-22 13:00:00
6:20 AM,12.2,3.2,67,29.85,10.0,SW,10.4,19.6,N/A,,Scattered Clouds,220,2014-02-22 13:20:00
6:40 AM,12.2,3.2,67,29.85,10.0,SSW,11.5,16.1,N/A,,Scattered Clouds,210,2014-02-22 13:40:00
7:00 AM,12.2,1.4,62,29.86,10.0,SW,11.5,20.7,N/A,,Clear,220,2014-02-22 14:00:00
7:20 AM,12.2,1.4,62,29.86,10.0,SW,11.5,19.6,N/A,,Clear,220,2014-02-22 14:20:00
7:39 AM,12.2,1.4,62,29.88,10.0,SW,12.7,17.3,N/A,,Clear,220,2014-02-22 14:39:00
7:59 AM,14.0,1.4,57,29.88,10.0,SSW,8.1,-,N/A,,Clear,210,2014-02-22 14:59:00
8:20 AM,15.8,1.4,53,29.88,10.0,SW,8.1,16.1,N/A,,Clear,220,2014-02-22 15:20:00
8:40 AM,17.6,1.4,49,29.89,10.0,SW,9.2,-,N/A,,Clear,220,2014-02-22 15:40:00
9:00 AM,19.4,1.4,46,29.89,10.0,SSW,8.1,-,N/A,,Clear,210,2014-02-22 16:00:00
9:19 AM,19.4,3.2,49,29.89,10.0,SSW,9.2,-,N/A,,Clear,210,2014-02-22 16:19:00
9:39 AM,21.2,3.2,46,29.89,10.0,SSW,9.2,-,N/A,,Clear,210,2014-02-22 16:39:00
10:00 AM,21.2,3.2,46,29.90,10.0,SSW,6.9,-,N/A,,Clear,200,2014-02-22 17:00:00
10:19 AM,23.0,3.2,43,29.90,10.0,SSW,5.8,-,N/A,,Clear,210,2014-02-22 17:19:00
10:40 AM,24.8,5.0,43,29.90,10.0,SSW,5.8,-,N/A,,Clear,210,2014-02-22 17:40:00
11:00 AM,26.6,5.0,40,29.90,10.0,SW,4.6,-,N/A,,Clear,220,2014-02-22 18:00:00
11:20 AM,26.6,6.8,43,29.89,10.0,SW,5.8,-,N/A,,Clear,220,2014-02-22 18:20:00
11:40 AM,26.6,8.6,47,29.88,10.0,WSW,6.9,-,N/A,,Clear,240,2014-02-22 18:40:00
12:00 PM,28.4,10.4,47,29.87,10.0,SW,6.9,-,N/A,,Clear,230,2014-02-22 19:00:00
12:20 PM,28.4,8.6,43,29.87,10.0,SW,5.8,-,N/A,,Clear,230,2014-02-22 19:20:00
12:40 PM,28.4,8.6,43,29.86,10.0,SW,6.9,-,N/A,,Clear,230,2014-02-22 19:40:00
1:00 PM,30.2,10.4,44,29.86,10.0,SSW,8.1,-,N/A,,Clear,210,2014-02-22 20:00:00
1:20 PM,28.4,10.4,47,29.85,10.0,SSW,9.2,17.3,N/A,,Scattered Clouds,210,2014-02-22 20:20:00
1:40 PM,28.4,10.4,47,29.86,10.0,SSW,9.2,18.4,N/A,,Mostly Cloudy,210,2014-02-22 20:40:00
2:00 PM,28.4,12.2,51,29.86,10.0,SW,5.8,-,N/A,,Overcast,220,2014-02-22 21:00:00
2:20 PM,26.6,12.2,55,29.86,10.0,SSW,9.2,23.0,N/A,,Overcast,210,2014-02-22 21:20:00
2:40 PM,26.6,12.2,55,29.86,10.0,SSW,6.9,16.1,N/A,,Overcast,210,2014-02-22 21:40:00
3:00 PM,26.6,12.2,55,29.86,10.0,SSW,11.5,18.4,N/A,,Overcast,200,2014-02-22 22:00:00
3:20 PM,26.6,12.2,55,29.86,10.0,SSW,9.2,-,N/A,,Overcast,200,2014-02-22 22:20:00
3:40 PM,26.6,12.2,55,29.86,10.0,SSW,9.2,19.6,N/A,,Overcast,200,2014-02-22 22:40:00
4:00 PM,24.8,12.2,59,29.87,10.0,SSW,10.4,20.7,N/A,,Overcast,200,2014-02-22 23:00:00
4:20 PM,23.0,12.2,63,29.87,10.0,SSW,8.1,20.7,N/A,,Overcast,200,2014-02-22 23:20:00
4:40 PM,21.2,12.2,68,29.88,10.0,SSW,8.1,16.1,N/A,,Overcast,200,2014-02-22 23:40:00
5:00 PM,21.2,12.2,68,29.88,10.0,SSW,8.1,16.1,N/A,,Mostly Cloudy,210,2014-02-23 00:00:00
5:20 PM,19.4,10.4,68,29.88,10.0,SSW,9.2,16.1,N/A,,Scattered Clouds,210,2014-02-23 00:20:00
5:40 PM,19.4,10.4,68,29.89,10.0,SW,5.8,-,N/A,,Scattered Clouds,220,2014-02-23 00:40:00
5:59 PM,19.4,8.6,63,29.89,10.0,SSW,10.4,20.7,N/A,,Clear,200,2014-02-23 00:59:00
6:20 PM,19.4,10.4,68,29.90,10.0,SSW,11.5,21.9,N/A,,Clear,210,2014-02-23 01:20:00
6:40 PM,17.6,10.4,73,29.91,10.0,SSW,11.5,19.6,N/A,,Scattered Clouds,210,2014-02-23 01:40:00
6:59 PM,17.6,10.4,73,29.90,10.0,SSW,8.1,17.3,N/A,,Mostly Cloudy,200,2014-02-23 01:59:00
7:20 PM,17.6,10.4,73,29.91,10.0,SSW,10.4,-,N/A,,Mostly Cloudy,210,2014-02-23 02:20:00
7:40 PM,17.6,10.4,73,29.91,10.0,SSW,9.2,19.6,N/A,,Mostly Cloudy,210,2014-02-23 02:40:00
8:00 PM,17.6,10.4,73,29.91,10.0,SSW,9.2,21.9,N/A,,Mostly Cloudy,210,2014-02-23 03:00:00
8:20 PM,17.6,8.6,68,29.92,10.0,SSW,11.5,19.6,N/A,,Scattered Clouds,210,2014-02-23 03:20:00
8:40 PM,17.6,8.6,68,29.92,10.0,SSW,9.2,18.4,N/A,,Mostly Cloudy,210,2014-02-23 03:40:00
9:00 PM,17.6,8.6,68,29.93,10.0,SW,13.8,19.6,N/A,,Scattered Clouds,220,2014-02-23 04:00:00
9:20 PM,17.6,8.6,68,29.93,10.0,SSW,11.5,20.7,N/A,,Scattered Clouds,210,2014-02-23 04:20:00
9:40 PM,17.6,8.6,68,29.94,10.0,SW,6.9,16.1,N/A,,Mostly Cloudy,220,2014-02-23 04:40:00
10:00 PM,15.8,8.6,73,29.94,10.0,WSW,5.8,-,N/A,,Scattered Clouds,250,2014-02-23 05:00:00
10:20 PM,17.6,10.4,73,29.95,10.0,West,8.1,-,N/A,,Clear,270,2014-02-23 05:20:00
10:40 PM,15.8,10.4,79,29.94,10.0,WSW,8.1,-,N/A,,Scattered Clouds,240,2014-02-23 05:40:00
11:00 PM,15.8,10.4,79,29.94,10.0,WSW,5.8,-,N/A,,Mostly Cloudy,240,2014-02-23 06:00:00
11:19 PM,15.8,10.4,79,29.94,10.0,WSW,8.1,-,N/A,,Mostly Cloudy,250,2014-02-23 06:19:00
11:40 PM,15.8,10.4,79,29.94,10.0,WSW,8.1,-,N/A,,Scattered Clouds,240,2014-02-23 06:40:00